Terminal Aerodrome Forecast
Issued by NWS

Home | Current Version | Previous Version | Text Only | Print | Product List | Glossary On
Versions: 1 2 3 4 5 6 7 8 9 10 11 12 13 14 15 16 17 18 19 20 21 22 23 24 25 26 27 28 29 30 31 32 33 34
000
FTAK31 PANC 251734
TAFADQ
TAF
PADQ 251734Z 2518/2618 10015KT P6SM -RA SCT008 OVC015
      TEMPO 2518/2522 4SM -RA BR BKN008
     FM252200 05012G26KT 6SM -RA BR SCT008 OVC015
     FM260700 02025G35KT P6SM -SHRA SCT025 BKN040
     FM261500 36025G32KT 3SM -RA BR SCT005 OVC010=

USA.gov is the U.S. government's official web portal to all federal, state and local government web resources and services.